sensor_id;sensor_type;location;lat;lon;timestamp;P1;durP1;ratioP1;P2;durP2;ratioP2
26319;SDS011;14024;52.226;5.200;2023-11-19T00:00:09;32.63;;;5.88;;
26319;SDS011;14024;52.226;5.200;2023-11-19T00:02:38;40.85;;;6.38;;
26319;SDS011;14024;52.226;5.200;2023-11-19T00:05:04;35.25;;;6.25;;
26319;SDS011;14024;52.226;5.200;2023-11-19T00:07:33;30.33;;;5.75;;
26319;SDS011;14024;52.226;5.200;2023-11-19T00:09:59;39.53;;;5.93;;
26319;SDS011;14024;52.226;5.200;2023-11-19T00:12:34;24.73;;;5.75;;
26319;SDS011;14024;52.226;5.200;2023-11-19T00:15:00;32.67;;;6.07;;
26319;SDS011;14024;52.226;5.200;2023-11-19T00:17:26;26.17;;;5.85;;
26319;SDS011;14024;52.226;5.200;2023-11-19T00:19:52;29.58;;;5.85;;
26319;SDS011;14024;52.226;5.200;2023-11-19T00:22:17;44.33;;;7.00;;
26319;SDS011;14024;52.226;5.200;2023-11-19T00:24:42;39.47;;;6.82;;
26319;SDS011;14024;52.226;5.200;2023-11-19T00:27:08;32.65;;;6.47;;
26319;SDS011;14024;52.226;5.200;2023-11-19T00:29:33;29.90;;;6.35;;
26319;SDS011;14024;52.226;5.200;2023-11-19T00:31:58;38.53;;;6.35;;
26319;SDS011;14024;52.226;5.200;2023-11-19T00:34:24;36.75;;;6.88;;
26319;SDS011;14024;52.226;5.200;2023-11-19T00:36:49;34.75;;;6.00;;
26319;SDS011;14024;52.226;5.200;2023-11-19T00:39:15;28.77;;;5.70;;
26319;SDS011;14024;52.226;5.200;2023-11-19T00:41:40;41.92;;;7.15;;
26319;SDS011;14024;52.226;5.200;2023-11-19T00:44:06;37.15;;;6.50;;
26319;SDS011;14024;52.226;5.200;2023-11-19T00:46:31;47.95;;;7.40;;
26319;SDS011;14024;52.226;5.200;2023-11-19T00:48:57;43.63;;;7.75;;
26319;SDS011;14024;52.226;5.200;2023-11-19T00:51:24;37.20;;;6.25;;
26319;SDS011;14024;52.226;5.200;2023-11-19T00:53:51;43.03;;;7.13;;
26319;SDS011;14024;52.226;5.200;2023-11-19T00:56:17;43.33;;;7.45;;
26319;SDS011;14024;52.226;5.200;2023-11-19T00:58:44;48.72;;;9.30;;
26319;SDS011;14024;52.226;5.200;2023-11-19T01:01:11;51.70;;;7.55;;
26319;SDS011;14024;52.226;5.200;2023-11-19T01:03:37;34.55;;;7.28;;
26319;SDS011;14024;52.226;5.200;2023-11-19T01:06:02;43.95;;;7.75;;
26319;SDS011;14024;52.226;5.200;2023-11-19T01:08:28;52.38;;;8.48;;
26319;SDS011;14024;52.226;5.200;2023-11-19T01:10:54;46.45;;;7.40;;
26319;SDS011;14024;52.226;5.200;2023-11-19T01:13:19;38.60;;;8.00;;
26319;SDS011;14024;52.226;5.200;2023-11-19T01:15:44;41.50;;;8.30;;
26319;SDS011;14024;52.226;5.200;2023-11-19T01:18:10;55.38;;;7.28;;
26319;SDS011;14024;52.226;5.200;2023-11-19T01:20:36;58.65;;;8.55;;
26319;SDS011;14024;52.226;5.200;2023-11-19T01:23:01;48.35;;;7.97;;
26319;SDS011;14024;52.226;5.200;2023-11-19T01:25:27;46.90;;;8.13;;
26319;SDS011;14024;52.226;5.200;2023-11-19T01:27:53;45.47;;;8.00;;
26319;SDS011;14024;52.226;5.200;2023-11-19T01:30:18;45.90;;;8.43;;
26319;SDS011;14024;52.226;5.200;2023-11-19T01:32:44;61.90;;;9.55;;
26319;SDS011;14024;52.226;5.200;2023-11-19T01:35:09;49.75;;;8.90;;
26319;SDS011;14024;52.226;5.200;2023-11-19T01:37:35;51.95;;;8.45;;
26319;SDS011;14024;52.226;5.200;2023-11-19T01:40:01;44.38;;;7.30;;
26319;SDS011;14024;52.226;5.200;2023-11-19T01:42:28;54.60;;;8.70;;
26319;SDS011;14024;52.226;5.200;2023-11-19T01:44:59;55.78;;;8.45;;
26319;SDS011;14024;52.226;5.200;2023-11-19T01:47:26;65.03;;;8.30;;
26319;SDS011;14024;52.226;5.200;2023-11-19T01:49:53;42.15;;;7.78;;
26319;SDS011;14024;52.226;5.200;2023-11-19T01:52:19;55.78;;;9.32;;
26319;SDS011;14024;52.226;5.200;2023-11-19T01:54:45;51.78;;;7.47;;
26319;SDS011;14024;52.226;5.200;2023-11-19T01:57:12;58.38;;;9.10;;
26319;SDS011;14024;52.226;5.200;2023-11-19T01:59:38;58.42;;;9.65;;
26319;SDS011;14024;52.226;5.200;2023-11-19T02:02:04;57.22;;;8.73;;
26319;SDS011;14024;52.226;5.200;2023-11-19T02:04:30;69.82;;;9.63;;
26319;SDS011;14024;52.226;5.200;2023-11-19T02:06:56;55.78;;;8.70;;
26319;SDS011;14024;52.226;5.200;2023-11-19T02:09:23;58.03;;;9.63;;
26319;SDS011;14024;52.226;5.200;2023-11-19T02:11:49;60.75;;;9.85;;
26319;SDS011;14024;52.226;5.200;2023-11-19T02:14:16;62.15;;;9.20;;
26319;SDS011;14024;52.226;5.200;2023-11-19T02:16:42;69.05;;;9.90;;
26319;SDS011;14024;52.226;5.200;2023-11-19T02:19:09;62.45;;;9.73;;
26319;SDS011;14024;52.226;5.200;2023-11-19T02:21:36;68.78;;;8.85;;
26319;SDS011;14024;52.226;5.200;2023-11-19T02:24:03;57.50;;;9.30;;
26319;SDS011;14024;52.226;5.200;2023-11-19T02:26:35;61.58;;;9.13;;
26319;SDS011;14024;52.226;5.200;2023-11-19T02:29:04;61.25;;;8.80;;
26319;SDS011;14024;52.226;5.200;2023-11-19T02:31:31;60.90;;;8.35;;
26319;SDS011;14024;52.226;5.200;2023-11-19T02:33:57;65.07;;;10.63;;
26319;SDS011;14024;52.226;5.200;2023-11-19T02:36:22;61.80;;;9.63;;
26319;SDS011;14024;52.226;5.200;2023-11-19T02:38:47;57.05;;;9.05;;
26319;SDS011;14024;52.226;5.200;2023-11-19T02:41:13;50.30;;;7.57;;
26319;SDS011;14024;52.226;5.200;2023-11-19T02:43:39;62.85;;;9.07;;
26319;SDS011;14024;52.226;5.200;2023-11-19T02:46:04;63.63;;;8.95;;
26319;SDS011;14024;52.226;5.200;2023-11-19T02:48:33;54.90;;;8.60;;
26319;SDS011;14024;52.226;5.200;2023-11-19T02:51:02;45.33;;;8.43;;
26319;SDS011;14024;52.226;5.200;2023-11-19T02:53:28;54.72;;;8.68;;
26319;SDS011;14024;52.226;5.200;2023-11-19T02:55:54;60.50;;;8.70;;
26319;SDS011;14024;52.226;5.200;2023-11-19T02:58:26;51.75;;;8.98;;
26319;SDS011;14024;52.226;5.200;2023-11-19T03:00:53;55.67;;;8.13;;
26319;SDS011;14024;52.226;5.200;2023-11-19T03:03:25;48.28;;;8.75;;
26319;SDS011;14024;52.226;5.200;2023-11-19T03:05:56;60.78;;;9.15;;
26319;SDS011;14024;52.226;5.200;2023-11-19T03:08:21;53.25;;;9.50;;
26319;SDS011;14024;52.226;5.200;2023-11-19T03:10:47;49.35;;;8.60;;
26319;SDS011;14024;52.226;5.200;2023-11-19T03:13:13;53.45;;;8.48;;
26319;SDS011;14024;52.226;5.200;2023-11-19T03:15:39;52.03;;;9.00;;
26319;SDS011;14024;52.226;5.200;2023-11-19T03:18:04;68.05;;;9.77;;
26319;SDS011;14024;52.226;5.200;2023-11-19T03:20:30;52.78;;;9.65;;
26319;SDS011;14024;52.226;5.200;2023-11-19T03:22:55;55.45;;;9.77;;
26319;SDS011;14024;52.226;5.200;2023-11-19T03:25:22;52.33;;;9.40;;
26319;SDS011;14024;52.226;5.200;2023-11-19T03:27:50;66.45;;;10.45;;
26319;SDS011;14024;52.226;5.200;2023-11-19T03:30:15;67.93;;;9.75;;
26319;SDS011;14024;52.226;5.200;2023-11-19T03:32:42;55.42;;;9.07;;
26319;SDS011;14024;52.226;5.200;2023-11-19T03:35:08;63.55;;;10.35;;
26319;SDS011;14024;52.226;5.200;2023-11-19T03:37:34;57.67;;;10.07;;
26319;SDS011;14024;52.226;5.200;2023-11-19T03:39:59;59.35;;;9.27;;
26319;SDS011;14024;52.226;5.200;2023-11-19T03:42:27;54.72;;;9.35;;
26319;SDS011;14024;52.226;5.200;2023-11-19T03:44:53;72.45;;;10.38;;
26319;SDS011;14024;52.226;5.200;2023-11-19T03:47:19;56.72;;;9.25;;
26319;SDS011;14024;52.226;5.200;2023-11-19T03:49:48;65.85;;;9.25;;
26319;SDS011;14024;52.226;5.200;2023-11-19T03:52:14;68.60;;;10.63;;
26319;SDS011;14024;52.226;5.200;2023-11-19T03:54:39;49.13;;;8.88;;
26319;SDS011;14024;52.226;5.200;2023-11-19T03:57:04;54.47;;;8.55;;
26319;SDS011;14024;52.226;5.200;2023-11-19T03:59:30;72.80;;;11.07;;
26319;SDS011;14024;52.226;5.200;2023-11-19T04:01:55;63.63;;;9.65;;
26319;SDS011;14024;52.226;5.200;2023-11-19T04:04:22;59.97;;;9.05;;
26319;SDS011;14024;52.226;5.200;2023-11-19T04:06:48;64.60;;;9.32;;
26319;SDS011;14024;52.226;5.200;2023-11-19T04:09:14;69.15;;;10.38;;
26319;SDS011;14024;52.226;5.200;2023-11-19T04:11:40;64.47;;;8.93;;
26319;SDS011;14024;52.226;5.200;2023-11-19T04:14:05;72.63;;;10.48;;
26319;SDS011;14024;52.226;5.200;2023-11-19T04:16:31;64.82;;;9.85;;
26319;SDS011;14024;52.226;5.200;2023-11-19T04:18:56;63.22;;;9.40;;
26319;SDS011;14024;52.226;5.200;2023-11-19T04:21:22;63.13;;;9.23;;
26319;SDS011;14024;52.226;5.200;2023-11-19T04:23:49;67.30;;;10.82;;
26319;SDS011;14024;52.226;5.200;2023-11-19T04:26:14;58.58;;;9.13;;
26319;SDS011;14024;52.226;5.200;2023-11-19T04:28:40;62.00;;;10.38;;
26319;SDS011;14024;52.226;5.200;2023-11-19T04:31:06;56.53;;;8.80;;
26319;SDS011;14024;52.226;5.200;2023-11-19T04:33:31;71.20;;;10.13;;
26319;SDS011;14024;52.226;5.200;2023-11-19T04:35:56;69.65;;;9.85;;
26319;SDS011;14024;52.226;5.200;2023-11-19T04:38:23;69.93;;;9.90;;
26319;SDS011;14024;52.226;5.200;2023-11-19T04:40:48;63.53;;;9.55;;
26319;SDS011;14024;52.226;5.200;2023-11-19T04:43:14;57.42;;;9.38;;
26319;SDS011;14024;52.226;5.200;2023-11-19T04:45:40;71.53;;;10.40;;
26319;SDS011;14024;52.226;5.200;2023-11-19T04:48:05;71.53;;;9.00;;
26319;SDS011;14024;52.226;5.200;2023-11-19T04:50:31;67.65;;;9.57;;
26319;SDS011;14024;52.226;5.200;2023-11-19T04:52:56;58.85;;;9.77;;
26319;SDS011;14024;52.226;5.200;2023-11-19T04:55:22;55.90;;;9.90;;
26319;SDS011;14024;52.226;5.200;2023-11-19T04:57:47;52.05;;;9.38;;
26319;SDS011;14024;52.226;5.200;2023-11-19T05:00:13;63.13;;;9.10;;
26319;SDS011;14024;52.226;5.200;2023-11-19T05:02:38;57.47;;;9.50;;
26319;SDS011;14024;52.226;5.200;2023-11-19T05:05:04;83.43;;;10.80;;
26319;SDS011;14024;52.226;5.200;2023-11-19T05:07:30;76.10;;;10.48;;
26319;SDS011;14024;52.226;5.200;2023-11-19T05:09:55;68.43;;;10.30;;
26319;SDS011;14024;52.226;5.200;2023-11-19T05:12:20;65.90;;;9.88;;
26319;SDS011;14024;52.226;5.200;2023-11-19T05:14:46;72.18;;;10.88;;
26319;SDS011;14024;52.226;5.200;2023-11-19T05:17:15;71.18;;;10.85;;
26319;SDS011;14024;52.226;5.200;2023-11-19T05:19:40;63.47;;;9.35;;
26319;SDS011;14024;52.226;5.200;2023-11-19T05:22:06;76.13;;;10.20;;
26319;SDS011;14024;52.226;5.200;2023-11-19T05:24:31;73.30;;;10.40;;
26319;SDS011;14024;52.226;5.200;2023-11-19T05:26:57;55.28;;;9.70;;
26319;SDS011;14024;52.226;5.200;2023-11-19T05:29:23;63.88;;;9.38;;
26319;SDS011;14024;52.226;5.200;2023-11-19T05:31:48;51.40;;;8.35;;
26319;SDS011;14024;52.226;5.200;2023-11-19T05:34:14;70.80;;;9.85;;
26319;SDS011;14024;52.226;5.200;2023-11-19T05:36:40;59.47;;;9.40;;
26319;SDS011;14024;52.226;5.200;2023-11-19T05:39:05;60.40;;;10.32;;
26319;SDS011;14024;52.226;5.200;2023-11-19T05:41:31;68.85;;;9.18;;
26319;SDS011;14024;52.226;5.200;2023-11-19T05:43:56;61.30;;;8.25;;
26319;SDS011;14024;52.226;5.200;2023-11-19T05:46:21;54.28;;;8.40;;
26319;SDS011;14024;52.226;5.200;2023-11-19T05:48:47;50.63;;;8.45;;
26319;SDS011;14024;52.226;5.200;2023-11-19T05:51:13;45.53;;;8.85;;
26319;SDS011;14024;52.226;5.200;2023-11-19T05:53:40;54.25;;;8.32;;
26319;SDS011;14024;52.226;5.200;2023-11-19T05:56:06;42.80;;;8.10;;
26319;SDS011;14024;52.226;5.200;2023-11-19T05:58:34;53.00;;;8.25;;
26319;SDS011;14024;52.226;5.200;2023-11-19T06:01:01;54.63;;;8.10;;
26319;SDS011;14024;52.226;5.200;2023-11-19T06:03:27;46.60;;;8.00;;
26319;SDS011;14024;52.226;5.200;2023-11-19T06:05:53;53.72;;;9.25;;
26319;SDS011;14024;52.226;5.200;2023-11-19T06:08:19;57.40;;;9.82;;
26319;SDS011;14024;52.226;5.200;2023-11-19T06:10:45;54.83;;;8.63;;
26319;SDS011;14024;52.226;5.200;2023-11-19T06:13:11;59.28;;;9.38;;
26319;SDS011;14024;52.226;5.200;2023-11-19T06:15:37;70.47;;;10.10;;
26319;SDS011;14024;52.226;5.200;2023-11-19T06:18:03;62.33;;;10.23;;
26319;SDS011;14024;52.226;5.200;2023-11-19T06:20:32;62.85;;;9.95;;
26319;SDS011;14024;52.226;5.200;2023-11-19T06:22:58;55.67;;;7.75;;
26319;SDS011;14024;52.226;5.200;2023-11-19T06:25:23;52.65;;;8.75;;
26319;SDS011;14024;52.226;5.200;2023-11-19T06:27:52;58.17;;;9.27;;
26319;SDS011;14024;52.226;5.200;2023-11-19T06:30:18;58.03;;;9.38;;
26319;SDS011;14024;52.226;5.200;2023-11-19T06:32:44;60.75;;;11.55;;
26319;SDS011;14024;52.226;5.200;2023-11-19T06:35:09;48.33;;;9.18;;
26319;SDS011;14024;52.226;5.200;2023-11-19T06:37:37;73.00;;;9.57;;
26319;SDS011;14024;52.226;5.200;2023-11-19T06:40:04;70.40;;;8.75;;
26319;SDS011;14024;52.226;5.200;2023-11-19T06:42:30;70.10;;;9.02;;
26319;SDS011;14024;52.226;5.200;2023-11-19T06:44:57;62.05;;;9.60;;
26319;SDS011;14024;52.226;5.200;2023-11-19T06:47:25;52.85;;;8.27;;
26319;SDS011;14024;52.226;5.200;2023-11-19T06:49:54;56.38;;;9.30;;
26319;SDS011;14024;52.226;5.200;2023-11-19T06:52:20;60.00;;;8.13;;
26319;SDS011;14024;52.226;5.200;2023-11-19T06:54:46;58.85;;;9.95;;
26319;SDS011;14024;52.226;5.200;2023-11-19T06:57:11;59.13;;;8.48;;
26319;SDS011;14024;52.226;5.200;2023-11-19T06:59:37;57.55;;;8.32;;
26319;SDS011;14024;52.226;5.200;2023-11-19T07:02:03;63.03;;;8.93;;
26319;SDS011;14024;52.226;5.200;2023-11-19T07:04:29;58.65;;;8.60;;
26319;SDS011;14024;52.226;5.200;2023-11-19T07:06:55;51.05;;;9.27;;
26319;SDS011;14024;52.226;5.200;2023-11-19T07:09:20;62.00;;;8.50;;
26319;SDS011;14024;52.226;5.200;2023-11-19T07:11:46;56.85;;;8.60;;
26319;SDS011;14024;52.226;5.200;2023-11-19T07:14:12;56.60;;;8.68;;
26319;SDS011;14024;52.226;5.200;2023-11-19T07:16:38;59.25;;;8.20;;
26319;SDS011;14024;52.226;5.200;2023-11-19T07:19:04;59.45;;;9.07;;
26319;SDS011;14024;52.226;5.200;2023-11-19T07:21:30;47.97;;;8.07;;
26319;SDS011;14024;52.226;5.200;2023-11-19T07:23:57;58.78;;;9.75;;
26319;SDS011;14024;52.226;5.200;2023-11-19T07:26:23;58.67;;;8.50;;
26319;SDS011;14024;52.226;5.200;2023-11-19T07:28:48;66.07;;;9.10;;
26319;SDS011;14024;52.226;5.200;2023-11-19T07:31:14;54.13;;;8.23;;
26319;SDS011;14024;52.226;5.200;2023-11-19T07:33:40;65.35;;;8.90;;
26319;SDS011;14024;52.226;5.200;2023-11-19T07:36:09;62.30;;;9.27;;
26319;SDS011;14024;52.226;5.200;2023-11-19T07:38:35;61.00;;;9.25;;
26319;SDS011;14024;52.226;5.200;2023-11-19T07:41:00;58.33;;;7.72;;
26319;SDS011;14024;52.226;5.200;2023-11-19T07:43:26;52.05;;;7.60;;
26319;SDS011;14024;52.226;5.200;2023-11-19T07:45:51;58.45;;;7.38;;
26319;SDS011;14024;52.226;5.200;2023-11-19T07:48:17;57.42;;;7.82;;
26319;SDS011;14024;52.226;5.200;2023-11-19T07:50:47;58.15;;;8.15;;
26319;SDS011;14024;52.226;5.200;2023-11-19T07:53:14;59.47;;;9.18;;
26319;SDS011;14024;52.226;5.200;2023-11-19T07:55:39;69.13;;;9.20;;
26319;SDS011;14024;52.226;5.200;2023-11-19T07:58:05;53.97;;;8.82;;
26319;SDS011;14024;52.226;5.200;2023-11-19T08:00:30;56.83;;;7.90;;
26319;SDS011;14024;52.226;5.200;2023-11-19T08:02:56;70.53;;;8.65;;
26319;SDS011;14024;52.226;5.200;2023-11-19T08:05:21;58.92;;;8.55;;
26319;SDS011;14024;52.226;5.200;2023-11-19T08:07:48;59.92;;;8.45;;
26319;SDS011;14024;52.226;5.200;2023-11-19T08:10:13;52.97;;;8.77;;
26319;SDS011;14024;52.226;5.200;2023-11-19T08:12:40;52.17;;;8.85;;
26319;SDS011;14024;52.226;5.200;2023-11-19T08:15:05;60.50;;;8.10;;
26319;SDS011;14024;52.226;5.200;2023-11-19T08:17:32;64.05;;;9.55;;
26319;SDS011;14024;52.226;5.200;2023-11-19T08:19:57;69.25;;;8.85;;
26319;SDS011;14024;52.226;5.200;2023-11-19T08:22:22;67.43;;;9.00;;
26319;SDS011;14024;52.226;5.200;2023-11-19T08:24:48;73.15;;;9.70;;
26319;SDS011;14024;52.226;5.200;2023-11-19T08:27:13;54.22;;;9.05;;
26319;SDS011;14024;52.226;5.200;2023-11-19T08:29:39;78.35;;;10.25;;
26319;SDS011;14024;52.226;5.200;2023-11-19T08:32:04;52.28;;;7.85;;
26319;SDS011;14024;52.226;5.200;2023-11-19T08:34:31;59.63;;;9.43;;
26319;SDS011;14024;52.226;5.200;2023-11-19T08:36:56;57.13;;;8.70;;
26319;SDS011;14024;52.226;5.200;2023-11-19T08:39:22;58.20;;;9.15;;
26319;SDS011;14024;52.226;5.200;2023-11-19T08:41:47;61.47;;;8.15;;
26319;SDS011;14024;52.226;5.200;2023-11-19T08:44:14;71.78;;;9.75;;
26319;SDS011;14024;52.226;5.200;2023-11-19T08:46:46;55.05;;;8.65;;
26319;SDS011;14024;52.226;5.200;2023-11-19T08:49:14;56.67;;;9.73;;
26319;SDS011;14024;52.226;5.200;2023-11-19T08:51:40;57.47;;;9.25;;
26319;SDS011;14024;52.226;5.200;2023-11-19T08:54:06;73.20;;;10.10;;
26319;SDS011;14024;52.226;5.200;2023-11-19T08:56:32;52.00;;;7.55;;
26319;SDS011;14024;52.226;5.200;2023-11-19T08:58:58;52.55;;;7.95;;
26319;SDS011;14024;52.226;5.200;2023-11-19T09:01:23;51.13;;;8.45;;
26319;SDS011;14024;52.226;5.200;2023-11-19T09:03:49;53.92;;;8.68;;
26319;SDS011;14024;52.226;5.200;2023-11-19T09:06:15;61.95;;;9.32;;
26319;SDS011;14024;52.226;5.200;2023-11-19T09:08:41;56.95;;;8.65;;
26319;SDS011;14024;52.226;5.200;2023-11-19T09:11:07;58.15;;;8.50;;
26319;SDS011;14024;52.226;5.200;2023-11-19T09:13:34;61.72;;;9.60;;
26319;SDS011;14024;52.226;5.200;2023-11-19T09:15:59;63.20;;;9.50;;
26319;SDS011;14024;52.226;5.200;2023-11-19T09:18:28;52.03;;;8.85;;
26319;SDS011;14024;52.226;5.200;2023-11-19T09:20:54;50.97;;;8.55;;
26319;SDS011;14024;52.226;5.200;2023-11-19T09:23:19;58.38;;;8.07;;
26319;SDS011;14024;52.226;5.200;2023-11-19T09:25:44;48.47;;;7.82;;
26319;SDS011;14024;52.226;5.200;2023-11-19T09:28:10;69.43;;;8.85;;
26319;SDS011;14024;52.226;5.200;2023-11-19T09:30:35;57.38;;;9.68;;
26319;SDS011;14024;52.226;5.200;2023-11-19T09:33:00;47.35;;;9.23;;
26319;SDS011;14024;52.226;5.200;2023-11-19T09:35:26;51.28;;;8.55;;
26319;SDS011;14024;52.226;5.200;2023-11-19T09:37:51;59.20;;;8.18;;
26319;SDS011;14024;52.226;5.200;2023-11-19T09:40:17;49.20;;;8.35;;
26319;SDS011;14024;52.226;5.200;2023-11-19T09:42:43;60.03;;;9.75;;
26319;SDS011;14024;52.226;5.200;2023-11-19T09:45:13;60.08;;;9.35;;
26319;SDS011;14024;52.226;5.200;2023-11-19T09:47:45;63.35;;;9.30;;
26319;SDS011;14024;52.226;5.200;2023-11-19T09:50:18;51.38;;;8.45;;
26319;SDS011;14024;52.226;5.200;2023-11-19T09:52:44;62.13;;;8.82;;
26319;SDS011;14024;52.226;5.200;2023-11-19T09:55:10;63.40;;;8.52;;
26319;SDS011;14024;52.226;5.200;2023-11-19T09:57:36;52.88;;;7.80;;
26319;SDS011;14024;52.226;5.200;2023-11-19T10:00:03;53.83;;;9.27;;
26319;SDS011;14024;52.226;5.200;2023-11-19T10:02:33;56.97;;;9.30;;
26319;SDS011;14024;52.226;5.200;2023-11-19T10:05:01;49.92;;;8.20;;
26319;SDS011;14024;52.226;5.200;2023-11-19T10:07:30;65.65;;;9.95;;
26319;SDS011;14024;52.226;5.200;2023-11-19T10:09:57;57.38;;;9.45;;
26319;SDS011;14024;52.226;5.200;2023-11-19T10:12:25;62.40;;;9.30;;
26319;SDS011;14024;52.226;5.200;2023-11-19T10:14:51;60.75;;;9.10;;
26319;SDS011;14024;52.226;5.200;2023-11-19T10:17:16;51.45;;;8.90;;
26319;SDS011;14024;52.226;5.200;2023-11-19T10:19:44;51.08;;;9.70;;
26319;SDS011;14024;52.226;5.200;2023-11-19T10:22:09;52.78;;;8.70;;
26319;SDS011;14024;52.226;5.200;2023-11-19T10:24:36;52.45;;;8.15;;
26319;SDS011;14024;52.226;5.200;2023-11-19T10:27:06;61.20;;;9.25;;
26319;SDS011;14024;52.226;5.200;2023-11-19T10:29:35;56.30;;;9.05;;
26319;SDS011;14024;52.226;5.200;2023-11-19T10:32:01;45.95;;;7.65;;
26319;SDS011;14024;52.226;5.200;2023-11-19T10:34:27;51.72;;;7.90;;
26319;SDS011;14024;52.226;5.200;2023-11-19T10:36:53;54.50;;;7.45;;
26319;SDS011;14024;52.226;5.200;2023-11-19T10:39:18;48.50;;;8.30;;
26319;SDS011;14024;52.226;5.200;2023-11-19T10:41:45;46.55;;;6.95;;
26319;SDS011;14024;52.226;5.200;2023-11-19T10:44:11;48.58;;;8.38;;
26319;SDS011;14024;52.226;5.200;2023-11-19T10:46:38;43.17;;;8.57;;
26319;SDS011;14024;52.226;5.200;2023-11-19T10:49:05;47.05;;;7.40;;
26319;SDS011;14024;52.226;5.200;2023-11-19T10:51:31;41.33;;;7.18;;
26319;SDS011;14024;52.226;5.200;2023-11-19T10:53:59;51.38;;;7.15;;
26319;SDS011;14024;52.226;5.200;2023-11-19T10:56:30;46.63;;;7.63;;
26319;SDS011;14024;52.226;5.200;2023-11-19T10:58:57;35.30;;;7.05;;
26319;SDS011;14024;52.226;5.200;2023-11-19T11:01:24;50.85;;;7.68;;
26319;SDS011;14024;52.226;5.200;2023-11-19T11:03:58;47.50;;;7.40;;
26319;SDS011;14024;52.226;5.200;2023-11-19T11:06:25;52.63;;;7.03;;
26319;SDS011;14024;52.226;5.200;2023-11-19T11:08:52;45.88;;;6.72;;
26319;SDS011;14024;52.226;5.200;2023-11-19T11:11:19;59.30;;;9.27;;
26319;SDS011;14024;52.226;5.200;2023-11-19T11:13:46;40.20;;;6.80;;
26319;SDS011;14024;52.226;5.200;2023-11-19T11:16:12;45.00;;;7.53;;
26319;SDS011;14024;52.226;5.200;2023-11-19T11:18:39;50.50;;;7.80;;
26319;SDS011;14024;52.226;5.200;2023-11-19T11:21:12;35.03;;;5.70;;
26319;SDS011;14024;52.226;5.200;2023-11-19T11:26:50;45.55;;;6.43;;
26319;SDS011;14024;52.226;5.200;2023-11-19T11:29:37;39.85;;;7.45;;
26319;SDS011;14024;52.226;5.200;2023-11-19T11:32:17;30.17;;;6.68;;
26319;SDS011;14024;52.226;5.200;2023-11-19T11:37:39;43.72;;;7.28;;
26319;SDS011;14024;52.226;5.200;2023-11-19T11:40:16;55.45;;;11.30;;
26319;SDS011;14024;52.226;5.200;2023-11-19T11:42:46;53.63;;;9.40;;
26319;SDS011;14024;52.226;5.200;2023-11-19T11:45:13;84.88;;;18.17;;
26319;SDS011;14024;52.226;5.200;2023-11-19T11:50:11;29.25;;;6.70;;
26319;SDS011;14024;52.226;5.200;2023-11-19T11:55:25;34.92;;;6.32;;
26319;SDS011;14024;52.226;5.200;2023-11-19T11:57:50;40.92;;;6.18;;
26319;SDS011;14024;52.226;5.200;2023-11-19T12:02:59;54.72;;;8.20;;
26319;SDS011;14024;52.226;5.200;2023-11-19T12:05:25;40.78;;;6.47;;
26319;SDS011;14024;52.226;5.200;2023-11-19T12:08:02;42.10;;;6.57;;
26319;SDS011;14024;52.226;5.200;2023-11-19T12:10:29;47.00;;;7.72;;
26319;SDS011;14024;52.226;5.200;2023-11-19T12:12:59;49.33;;;8.70;;
26319;SDS011;14024;52.226;5.200;2023-11-19T12:15:25;50.55;;;8.70;;
26319;SDS011;14024;52.226;5.200;2023-11-19T12:17:52;46.75;;;8.10;;
26319;SDS011;14024;52.226;5.200;2023-11-19T12:20:21;45.65;;;7.93;;
26319;SDS011;14024;52.226;5.200;2023-11-19T12:22:47;46.85;;;7.75;;
26319;SDS011;14024;52.226;5.200;2023-11-19T12:25:14;66.25;;;9.43;;
26319;SDS011;14024;52.226;5.200;2023-11-19T12:27:41;56.00;;;8.98;;
26319;SDS011;14024;52.226;5.200;2023-11-19T12:30:08;51.13;;;8.23;;
26319;SDS011;14024;52.226;5.200;2023-11-19T12:32:44;48.38;;;8.23;;
26319;SDS011;14024;52.226;5.200;2023-11-19T12:35:10;51.53;;;8.70;;
26319;SDS011;14024;52.226;5.200;2023-11-19T12:42:38;45.35;;;8.60;;
26319;SDS011;14024;52.226;5.200;2023-11-19T12:45:04;30.98;;;6.72;;
26319;SDS011;14024;52.226;5.200;2023-11-19T12:47:29;37.05;;;6.97;;
26319;SDS011;14024;52.226;5.200;2023-11-19T12:49:55;38.75;;;5.85;;
26319;SDS011;14024;52.226;5.200;2023-11-19T12:52:21;32.53;;;7.13;;
26319;SDS011;14024;52.226;5.200;2023-11-19T12:54:48;29.25;;;5.25;;
26319;SDS011;14024;52.226;5.200;2023-11-19T12:57:13;27.42;;;6.35;;
26319;SDS011;14024;52.226;5.200;2023-11-19T12:59:39;37.22;;;7.38;;
26319;SDS011;14024;52.226;5.200;2023-11-19T13:02:04;28.85;;;5.55;;
26319;SDS011;14024;52.226;5.200;2023-11-19T13:04:31;37.33;;;5.60;;
26319;SDS011;14024;52.226;5.200;2023-11-19T13:06:57;25.45;;;5.18;;
26319;SDS011;14024;52.226;5.200;2023-11-19T13:09:27;24.55;;;5.25;;
26319;SDS011;14024;52.226;5.200;2023-11-19T13:11:53;26.67;;;5.32;;
26319;SDS011;14024;52.226;5.200;2023-11-19T13:14:21;36.53;;;7.00;;
26319;SDS011;14024;52.226;5.200;2023-11-19T13:16:47;39.53;;;7.53;;
26319;SDS011;14024;52.226;5.200;2023-11-19T13:19:13;40.13;;;6.85;;
26319;SDS011;14024;52.226;5.200;2023-11-19T13:21:39;31.70;;;6.85;;
26319;SDS011;14024;52.226;5.200;2023-11-19T13:24:05;36.60;;;6.85;;
26319;SDS011;14024;52.226;5.200;2023-11-19T13:26:31;51.28;;;8.63;;
26319;SDS011;14024;52.226;5.200;2023-11-19T13:28:57;42.25;;;6.90;;
26319;SDS011;14024;52.226;5.200;2023-11-19T13:31:22;47.47;;;8.48;;
26319;SDS011;14024;52.226;5.200;2023-11-19T13:33:47;44.33;;;7.25;;
26319;SDS011;14024;52.226;5.200;2023-11-19T13:36:13;53.20;;;8.27;;
26319;SDS011;14024;52.226;5.200;2023-11-19T13:38:39;45.70;;;8.27;;
26319;SDS011;14024;52.226;5.200;2023-11-19T13:41:06;42.30;;;8.52;;
26319;SDS011;14024;52.226;5.200;2023-11-19T13:43:31;56.80;;;8.65;;
26319;SDS011;14024;52.226;5.200;2023-11-19T13:45:57;44.40;;;8.38;;
26319;SDS011;14024;52.226;5.200;2023-11-19T13:48:23;41.80;;;7.35;;
26319;SDS011;14024;52.226;5.200;2023-11-19T13:50:50;51.75;;;7.97;;
26319;SDS011;14024;52.226;5.200;2023-11-19T13:53:16;61.25;;;9.13;;
26319;SDS011;14024;52.226;5.200;2023-11-19T13:55:41;46.47;;;7.55;;
26319;SDS011;14024;52.226;5.200;2023-11-19T13:58:07;42.58;;;7.90;;
26319;SDS011;14024;52.226;5.200;2023-11-19T14:00:32;50.88;;;7.68;;
26319;SDS011;14024;52.226;5.200;2023-11-19T14:02:58;51.53;;;7.95;;
26319;SDS011;14024;52.226;5.200;2023-11-19T14:05:25;47.03;;;7.50;;
26319;SDS011;14024;52.226;5.200;2023-11-19T14:07:51;37.63;;;6.63;;
26319;SDS011;14024;52.226;5.200;2023-11-19T14:10:17;50.85;;;8.95;;
26319;SDS011;14024;52.226;5.200;2023-11-19T14:12:42;37.60;;;7.70;;
26319;SDS011;14024;52.226;5.200;2023-11-19T14:15:08;44.00;;;7.03;;
26319;SDS011;14024;52.226;5.200;2023-11-19T14:17:35;43.55;;;7.70;;
26319;SDS011;14024;52.226;5.200;2023-11-19T14:20:01;56.28;;;9.32;;
26319;SDS011;14024;52.226;5.200;2023-11-19T14:22:28;39.28;;;7.75;;
26319;SDS011;14024;52.226;5.200;2023-11-19T14:24:55;48.70;;;6.60;;
26319;SDS011;14024;52.226;5.200;2023-11-19T14:27:20;43.40;;;8.02;;
26319;SDS011;14024;52.226;5.200;2023-11-19T14:29:47;48.38;;;8.30;;
26319;SDS011;14024;52.226;5.200;2023-11-19T14:32:12;38.30;;;7.13;;
26319;SDS011;14024;52.226;5.200;2023-11-19T14:34:38;42.00;;;7.57;;
26319;SDS011;14024;52.226;5.200;2023-11-19T14:37:03;42.60;;;6.95;;
26319;SDS011;14024;52.226;5.200;2023-11-19T14:39:28;43.50;;;8.02;;
26319;SDS011;14024;52.226;5.200;2023-11-19T14:41:56;48.53;;;8.23;;
26319;SDS011;14024;52.226;5.200;2023-11-19T14:44:23;36.35;;;6.43;;
26319;SDS011;14024;52.226;5.200;2023-11-19T14:46:48;46.33;;;7.63;;